sensor_id;sensor_type;location;lat;lon;timestamp;pressure;altitude;pressure_sealevel;temperature;humidity
38253;BME280;24785;52.372;20.672;2023-08-01T00:01:45;99842.56;;;16.81;100.00
38253;BME280;24785;52.372;20.672;2023-08-01T00:11:46;99836.91;;;16.94;100.00
38253;BME280;24785;52.372;20.672;2023-08-01T00:21:47;99832.88;;;17.00;100.00
38253;BME280;24785;52.372;20.672;2023-08-01T00:31:48;99825.75;;;16.96;100.00
38253;BME280;24785;52.372;20.672;2023-08-01T00:41:49;99820.28;;;16.84;100.00
38253;BME280;24785;52.372;20.672;2023-08-01T00:51:50;99801.19;;;16.80;100.00
38253;BME280;24785;52.372;20.672;2023-08-01T01:01:50;99784.44;;;16.87;100.00
38253;BME280;24785;52.372;20.672;2023-08-01T01:11:51;99774.19;;;16.92;100.00
38253;BME280;24785;52.372;20.672;2023-08-01T01:21:52;99770.94;;;16.99;100.00
38253;BME280;24785;52.372;20.672;2023-08-01T01:31:53;99752.75;;;17.08;100.00
38253;BME280;24785;52.372;20.672;2023-08-01T01:41:54;99748.25;;;17.12;100.00
38253;BME280;24785;52.372;20.672;2023-08-01T01:51:55;99727.50;;;17.16;100.00
38253;BME280;24785;52.372;20.672;2023-08-01T02:01:56;99707.44;;;17.17;100.00
38253;BME280;24785;52.372;20.672;2023-08-01T02:11:57;99690.28;;;17.13;100.00
38253;BME280;24785;52.372;20.672;2023-08-01T02:21:58;99671.25;;;17.01;100.00
38253;BME280;24785;52.372;20.672;2023-08-01T02:31:58;99662.50;;;16.71;100.00
38253;BME280;24785;52.372;20.672;2023-08-01T02:41:59;99646.03;;;16.55;100.00
38253;BME280;24785;52.372;20.672;2023-08-01T02:52:00;99634.19;;;16.68;100.00
38253;BME280;24785;52.372;20.672;2023-08-01T03:02:02;99625.44;;;16.84;100.00
38253;BME280;24785;52.372;20.672;2023-08-01T03:12:03;99614.97;;;16.94;100.00
38253;BME280;24785;52.372;20.672;2023-08-01T03:22:04;99608.03;;;17.06;100.00
38253;BME280;24785;52.372;20.672;2023-08-01T03:32:05;99593.16;;;17.24;100.00
38253;BME280;24785;52.372;20.672;2023-08-01T03:42:06;99585.16;;;17.52;100.00
38253;BME280;24785;52.372;20.672;2023-08-01T03:52:08;99574.88;;;17.70;100.00
38253;BME280;24785;52.372;20.672;2023-08-01T04:02:09;99566.53;;;17.75;98.37
38253;BME280;24785;52.372;20.672;2023-08-01T04:12:10;99569.53;;;17.85;97.24
38253;BME280;24785;52.372;20.672;2023-08-01T04:22:10;99561.63;;;17.92;96.52
38253;BME280;24785;52.372;20.672;2023-08-01T04:32:11;99554.81;;;18.11;95.77
38253;BME280;24785;52.372;20.672;2023-08-01T04:42:14;99539.41;;;18.71;92.65
38253;BME280;24785;52.372;20.672;2023-08-01T04:52:15;99536.56;;;20.58;79.86
38253;BME280;24785;52.372;20.672;2023-08-01T05:02:16;99521.94;;;21.35;73.82
38253;BME280;24785;52.372;20.672;2023-08-01T05:12:17;99512.69;;;20.71;72.15
38253;BME280;24785;52.372;20.672;2023-08-01T05:22:18;99508.47;;;20.12;74.54
38253;BME280;24785;52.372;20.672;2023-08-01T05:32:18;99504.03;;;19.85;75.69
38253;BME280;24785;52.372;20.672;2023-08-01T05:42:19;99498.75;;;19.92;75.18
38253;BME280;24785;52.372;20.672;2023-08-01T05:52:20;99504.56;;;19.90;76.78
38253;BME280;24785;52.372;20.672;2023-08-01T06:02:21;99487.53;;;19.93;77.41
38253;BME280;24785;52.372;20.672;2023-08-01T06:12:22;99478.34;;;20.40;76.81
38253;BME280;24785;52.372;20.672;2023-08-01T06:22:23;99459.63;;;21.11;74.71
38253;BME280;24785;52.372;20.672;2023-08-01T06:32:24;99452.69;;;21.40;69.38
38253;BME280;24785;52.372;20.672;2023-08-01T06:42:24;99447.25;;;21.73;68.25
38253;BME280;24785;52.372;20.672;2023-08-01T06:52:25;99430.63;;;22.59;65.05
38253;BME280;24785;52.372;20.672;2023-08-01T07:02:26;99424.13;;;23.33;61.20
38253;BME280;24785;52.372;20.672;2023-08-01T07:12:27;99426.44;;;23.24;60.60
38253;BME280;24785;52.372;20.672;2023-08-01T07:22:28;99411.38;;;23.62;61.17
38253;BME280;24785;52.372;20.672;2023-08-01T07:32:29;99409.13;;;23.89;60.45
38253;BME280;24785;52.372;20.672;2023-08-01T07:42:30;99391.66;;;24.61;58.54
38253;BME280;24785;52.372;20.672;2023-08-01T07:52:30;99389.69;;;24.72;57.30
38253;BME280;24785;52.372;20.672;2023-08-01T08:02:31;99379.44;;;24.09;57.80
38253;BME280;24785;52.372;20.672;2023-08-01T08:12:32;99374.25;;;23.61;59.21
38253;BME280;24785;52.372;20.672;2023-08-01T08:22:33;99377.25;;;23.31;60.49
38253;BME280;24785;52.372;20.672;2023-08-01T08:32:35;99370.22;;;23.30;60.23
38253;BME280;24785;52.372;20.672;2023-08-01T08:42:36;99374.41;;;23.06;63.13
38253;BME280;24785;52.372;20.672;2023-08-01T08:52:37;99370.41;;;23.73;62.26
38253;BME280;24785;52.372;20.672;2023-08-01T09:02:38;99347.03;;;24.57;61.28
38253;BME280;24785;52.372;20.672;2023-08-01T09:12:39;99338.91;;;25.59;58.46
38253;BME280;24785;52.372;20.672;2023-08-01T09:22:44;99335.41;;;25.55;53.89
38253;BME280;24785;52.372;20.672;2023-08-01T09:32:55;99335.84;;;25.42;56.63
38253;BME280;24785;52.372;20.672;2023-08-01T09:43:00;99322.97;;;25.32;55.51
38253;BME280;24785;52.372;20.672;2023-08-01T09:53:08;99334.44;;;25.02;57.12
38253;BME280;24785;52.372;20.672;2023-08-01T10:03:09;99341.56;;;24.18;58.59
38253;BME280;24785;52.372;20.672;2023-08-01T10:13:13;99349.06;;;23.13;64.94
38253;BME280;24785;52.372;20.672;2023-08-01T10:23:14;99366.22;;;22.51;71.80
38253;BME280;24785;52.372;20.672;2023-08-01T10:33:15;99362.56;;;21.92;78.73
38253;BME280;24785;52.372;20.672;2023-08-01T10:43:21;99358.13;;;21.77;88.31
38253;BME280;24785;52.372;20.672;2023-08-01T10:53:22;99345.88;;;22.01;93.30
38253;BME280;24785;52.372;20.672;2023-08-01T11:03:33;99342.25;;;22.27;95.44
38253;BME280;24785;52.372;20.672;2023-08-01T11:13:34;99336.84;;;22.92;97.17
38253;BME280;24785;52.372;20.672;2023-08-01T11:23:36;99309.47;;;23.76;85.34
38253;BME280;24785;52.372;20.672;2023-08-01T11:33:37;99301.66;;;23.89;80.12
38253;BME280;24785;52.372;20.672;2023-08-01T11:43:41;99290.72;;;23.99;73.89
38253;BME280;24785;52.372;20.672;2023-08-01T11:53:42;99279.78;;;24.24;71.95
38253;BME280;24785;52.372;20.672;2023-08-01T12:03:47;99253.94;;;24.43;69.09
38253;BME280;24785;52.372;20.672;2023-08-01T12:14:09;99248.88;;;23.92;71.32
38253;BME280;24785;52.372;20.672;2023-08-01T12:24:10;99244.19;;;23.96;71.08
38253;BME280;24785;52.372;20.672;2023-08-01T12:34:11;99241.09;;;23.65;71.58
38253;BME280;24785;52.372;20.672;2023-08-01T12:44:12;99223.03;;;23.29;72.31
38253;BME280;24785;52.372;20.672;2023-08-01T12:54:16;99222.66;;;23.48;75.32
38253;BME280;24785;52.372;20.672;2023-08-01T13:04:17;99213.72;;;23.69;73.39
38253;BME280;24785;52.372;20.672;2023-08-01T13:14:17;99202.38;;;24.27;70.81
38253;BME280;24785;52.372;20.672;2023-08-01T13:24:18;99195.28;;;24.40;66.91
38253;BME280;24785;52.372;20.672;2023-08-01T13:34:19;99177.34;;;24.14;66.43
38253;BME280;24785;52.372;20.672;2023-08-01T13:44:20;99175.84;;;23.74;68.88
38253;BME280;24785;52.372;20.672;2023-08-01T13:54:21;99170.69;;;23.27;71.04
38253;BME280;24785;52.372;20.672;2023-08-01T14:04:22;99153.91;;;23.32;72.80
38253;BME280;24785;52.372;20.672;2023-08-01T14:14:23;99156.09;;;22.73;75.07
38253;BME280;24785;52.372;20.672;2023-08-01T14:24:23;99193.00;;;21.35;99.81
38253;BME280;24785;52.372;20.672;2023-08-01T14:34:24;99159.56;;;20.38;100.00
38253;BME280;24785;52.372;20.672;2023-08-01T14:44:25;99147.84;;;20.34;100.00
38253;BME280;24785;52.372;20.672;2023-08-01T14:54:27;99128.44;;;20.35;100.00
38253;BME280;24785;52.372;20.672;2023-08-01T15:04:28;99138.72;;;20.83;100.00
38253;BME280;24785;52.372;20.672;2023-08-01T15:14:29;99121.75;;;20.96;100.00
38253;BME280;24785;52.372;20.672;2023-08-01T15:24:30;99124.94;;;21.05;100.00
38253;BME280;24785;52.372;20.672;2023-08-01T15:34:31;99105.16;;;21.12;100.00
38253;BME280;24785;52.372;20.672;2023-08-01T15:44:32;99109.63;;;20.90;100.00
38253;BME280;24785;52.372;20.672;2023-08-01T15:54:33;99113.16;;;20.57;100.00
38253;BME280;24785;52.372;20.672;2023-08-01T16:04:34;99110.34;;;20.50;100.00
38253;BME280;24785;52.372;20.672;2023-08-01T16:14:34;99114.59;;;20.81;100.00
38253;BME280;24785;52.372;20.672;2023-08-01T16:24:35;99112.50;;;21.08;100.00
38253;BME280;24785;52.372;20.672;2023-08-01T16:34:36;99124.56;;;21.07;100.00
38253;BME280;24785;52.372;20.672;2023-08-01T16:44:38;99109.94;;;20.82;100.00
38253;BME280;24785;52.372;20.672;2023-08-01T16:54:38;99113.75;;;20.77;100.00
38253;BME280;24785;52.372;20.672;2023-08-01T17:04:40;99123.34;;;20.64;100.00
38253;BME280;24785;52.372;20.672;2023-08-01T17:14:41;99133.66;;;20.48;100.00
38253;BME280;24785;52.372;20.672;2023-08-01T17:24:42;99153.69;;;20.36;97.13
38253;BME280;24785;52.372;20.672;2023-08-01T17:34:43;99149.66;;;20.26;97.78
38253;BME280;24785;52.372;20.672;2023-08-01T17:44:43;99149.44;;;20.08;99.48
38253;BME280;24785;52.372;20.672;2023-08-01T17:54:44;99158.91;;;19.92;100.00
38253;BME280;24785;52.372;20.672;2023-08-01T18:04:45;99157.16;;;19.80;100.00
38253;BME280;24785;52.372;20.672;2023-08-01T18:14:46;99211.56;;;19.84;100.00
38253;BME280;24785;52.372;20.672;2023-08-01T18:24:47;99216.34;;;19.02;100.00
38253;BME280;24785;52.372;20.672;2023-08-01T18:34:48;99212.38;;;18.26;100.00
38253;BME280;24785;52.372;20.672;2023-08-01T18:44:50;99230.63;;;17.78;100.00
38253;BME280;24785;52.372;20.672;2023-08-01T18:54:51;99224.56;;;17.53;100.00
38253;BME280;24785;52.372;20.672;2023-08-01T19:04:52;99206.03;;;17.40;100.00
38253;BME280;24785;52.372;20.672;2023-08-01T19:14:53;99202.53;;;17.39;100.00
38253;BME280;24785;52.372;20.672;2023-08-01T19:24:54;99202.34;;;17.48;100.00
38253;BME280;24785;52.372;20.672;2023-08-01T19:34:55;99205.97;;;17.52;100.00
38253;BME280;24785;52.372;20.672;2023-08-01T19:44:55;99218.81;;;17.55;100.00
38253;BME280;24785;52.372;20.672;2023-08-01T19:54:56;99230.00;;;17.53;100.00
38253;BME280;24785;52.372;20.672;2023-08-01T20:04:58;99250.19;;;17.56;100.00
38253;BME280;24785;52.372;20.672;2023-08-01T20:15:00;99253.47;;;17.49;100.00
38253;BME280;24785;52.372;20.672;2023-08-01T20:25:01;99263.66;;;17.40;100.00
38253;BME280;24785;52.372;20.672;2023-08-01T20:35:02;99258.22;;;17.24;100.00
38253;BME280;24785;52.372;20.672;2023-08-01T20:45:04;99263.69;;;17.12;100.00
38253;BME280;24785;52.372;20.672;2023-08-01T20:55:05;99265.78;;;17.03;100.00
38253;BME280;24785;52.372;20.672;2023-08-01T21:05:06;99277.16;;;16.96;100.00
38253;BME280;24785;52.372;20.672;2023-08-01T21:15:08;99292.06;;;16.90;100.00
38253;BME280;24785;52.372;20.672;2023-08-01T21:25:09;99306.13;;;16.96;100.00
38253;BME280;24785;52.372;20.672;2023-08-01T21:35:10;99300.13;;;16.75;100.00
38253;BME280;24785;52.372;20.672;2023-08-01T21:45:11;99300.13;;;16.62;100.00
38253;BME280;24785;52.372;20.672;2023-08-01T21:55:12;99292.88;;;16.54;100.00
38253;BME280;24785;52.372;20.672;2023-08-01T22:05:13;99267.88;;;16.45;100.00
38253;BME280;24785;52.372;20.672;2023-08-01T22:15:14;99272.19;;;16.34;100.00
38253;BME280;24785;52.372;20.672;2023-08-01T22:25:14;99273.53;;;16.28;100.00
38253;BME280;24785;52.372;20.672;2023-08-01T22:35:15;99272.53;;;16.20;100.00
38253;BME280;24785;52.372;20.672;2023-08-01T22:45:16;99270.41;;;16.14;100.00
38253;BME280;24785;52.372;20.672;2023-08-01T22:55:21;99265.88;;;16.05;100.00
38253;BME280;24785;52.372;20.672;2023-08-01T23:05:21;99248.88;;;16.05;100.00
38253;BME280;24785;52.372;20.672;2023-08-01T23:15:24;99236.84;;;16.15;100.00
38253;BME280;24785;52.372;20.672;2023-08-01T23:25:24;99240.91;;;16.21;100.00
38253;BME280;24785;52.372;20.672;2023-08-01T23:35:25;99235.38;;;16.29;100.00
38253;BME280;24785;52.372;20.672;2023-08-01T23:45:26;99258.22;;;16.32;100.00
38253;BME280;24785;52.372;20.672;2023-08-01T23:55:27;99239.31;;;16.32;100.00
